메인 페이지
METAR-TAF:

METAR-TAF

공항 :

마라톤, 플로리다, 미국

위도: 24-43-33N, 경도: 081-02-52W, 고도: 2m

현재 날씨관측

예보는 52분 전, 22:53시(UTC)에 발표되었습니다.
5kt
온도 28°C
습도 70%
기압 1011 hPa
시정: 16.1km
맑음

METAR: KMTH 312253Z AUTO 26005KT 10SM CLR 28/22 A2984 RMK AO2 SLP103 T02830217

시각: 19:45 (23:45 UTC)

예보

예보는 2 시간 32분 전, 21:13시(UTC)에 발표되었습니다.
예보 대상 시간: 31일 21시부터 01일 18시까지 (UTC)
서남서7kt
시정: 10km
고도 2500ft 상공 구름 조금
고도 25000ft 상공 구름 보통
01일 0400시부터 (UTC)
10kt, 순간 최대 풍속 17kt
시정: 10km
고도 2000ft 상공 구름 보통
고도 8000ft 상공 구름 많음
01일 1100시부터 (UTC)
14kt, 순간 최대 풍속 22kt
시정: 10km
고도 2000ft 상공 구름 보통
고도 3000ft 상공 구름 많음
고도 6000ft 상공 흐림
일시적
01일 12시부터 01일 16시까지 (UTC)
시정: 8.0km
고도 2000ft 상공 구름 많음
고도 3000ft 상공 흐림
소나기, 박무
01일 1600시부터 (UTC)
북서14kt, 순간 최대 풍속 22kt
시정: 10km
고도 2500ft 상공 구름 보통
고도 5000ft 상공 구름 많음

TAF: KMTH 312113Z 3121/0118 24007KT P6SM FEW025 SCT250 FM010400 26010G17KT P6SM SCT020 BKN080 FM011100 28014G22KT P6SM SCT020 BKN030 OVC060 TEMPO 0112/0116 5SM SHRA BR BKN020 OVC030 FM011600 32014G22KT P6SM SCT025 BKN050

4,000개 이상의 공항 관측 자료 및 예보 (METAR 및 TAF 보고).

지도상에서 검색 가능한 기상관측소가 노란 점과 빨간 점으로 표시되어 있습니다.

기상관측소 명을 보려면 표시 위로 마우스를 이동하세요.

날씨 관측과 예보를 보려면 클릭하세요.

지도 변경 : 확대하려면 엑스 표시가 있는 녹색 버튼, 축소하려면 빼기 표시가 있는 녹색 버튼, 다음 페이지의 지도를 보려면 녹색 화살표를 클릭하세요.


METAR-TAF: